PWSweather.com
Personal Weather Stations
Station Observations
BANEKERE1
AntwerpenBE

AntwerpenBE

Lat: 51.2809101, Lon: 4.4202713

Elevation: 40

Station Type:

http://www.akker.be

Latest ConditionsUpdated 8:10:40 PM GMT+01:01 Friday, Dec 9, 2016
Currently Today's Max Today's Min Today's Average
Temperature 48.5°F9.2°C 54.3°F12.4°C 46.8°F8.2°C 49.7°F9.8°C
Dew Point 44.2°F6.8°C 47.0°F8.3°C 42.1°F5.6°C 44.1°F6.7°C
Winds 6.9 mph S11.1 kmh S 6.9 mph S11.1 kmh S - 4.8 mph 7.7 kmh
Wind Gusts 12.7 mph20.4 kmh 12.7 mph20.4 kmh - -
Humidity 85% 90% 75% 81%
Pressure 30.35 in1027.8 mb 30.40 in1029.5 mb 30.35 in1027.8 mb -
Hour Temp Dew Point Humidity Winds Wind Gusts Pressure Precip Precip Rate Daily Precip Total
08:10 PM 48.5°F9.2°C 44.2°F6.8°C 85% 6.9 mph S11.1 kmh S 12.7 mph20.4 kmh 30.35 in1027.8 mb - 0.00 in0.0 mm 0.00 in0.0 mm
08:00 PM 48.5°F9.2°C 44.2°F6.8°C 85% 5.8 mph SSW9.3 kmh SSW 11.5 mph18.5 kmh 30.35 in1027.8 mb - 0.00 in0.0 mm 0.00 in0.0 mm
07:50 PM 48.5°F9.2°C 44.2°F6.8°C 85% 5.8 mph SSW9.3 kmh SSW 6.9 mph11.1 kmh 30.35 in1027.8 mb - 0.00 in0.0 mm 0.00 in0.0 mm
07:40 PM 48.6°F9.2°C 44.0°F6.7°C 84% 5.8 mph S9.3 kmh S 10.4 mph16.7 kmh 30.35 in1027.8 mb - 0.00 in0.0 mm 0.00 in0.0 mm
07:30 PM 48.7°F9.3°C 44.1°F6.7°C 84% 5.8 mph S9.3 kmh S 8.1 mph13.0 kmh 30.35 in1027.8 mb - 0.00 in0.0 mm 0.00 in0.0 mm
07:20 PM 48.8°F9.3°C 44.2°F6.8°C 84% 5.8 mph S9.3 kmh S 12.7 mph20.4 kmh 30.36 in1028.1 mb - 0.00 in0.0 mm 0.00 in0.0 mm
07:10 PM 49.0°F9.4°C 44.1°F6.7°C 83% 5.8 mph SSW9.3 kmh SSW 9.2 mph14.8 kmh 30.36 in1028.1 mb - 0.00 in0.0 mm 0.00 in0.0 mm
07:00 PM 49.2°F9.6°C 44.3°F6.8°C 83% 4.6 mph SSW7.4 kmh SSW 10.4 mph16.7 kmh 30.36 in1028.1 mb - 0.00 in0.0 mm 0.00 in0.0 mm
06:50 PM 49.4°F9.7°C 44.2°F6.8°C 82% 6.9 mph S11.1 kmh S 9.2 mph14.8 kmh 30.36 in1028.1 mb - 0.00 in0.0 mm 0.00 in0.0 mm
06:40 PM 49.7°F9.8°C 44.1°F6.7°C 81% 4.6 mph S7.4 kmh S 8.1 mph13.0 kmh 30.36 in1028.1 mb - 0.00 in0.0 mm 0.00 in0.0 mm
06:30 PM 50.0°F10.0°C 44.1°F6.7°C 80% 3.5 mph SSW5.6 kmh SSW 5.8 mph9.3 kmh 30.36 in1028.1 mb - 0.00 in0.0 mm 0.00 in0.0 mm
06:20 PM 50.3°F10.2°C 44.4°F6.9°C 80% 3.5 mph S5.6 kmh S 6.9 mph11.1 kmh 30.36 in1028.1 mb - 0.00 in0.0 mm 0.00 in0.0 mm
06:10 PM 50.6°F10.3°C 44.3°F6.8°C 79% 5.8 mph S9.3 kmh S 10.4 mph16.7 kmh 30.36 in1028.1 mb - 0.00 in0.0 mm 0.00 in0.0 mm
06:00 PM 50.8°F10.4°C 44.5°F6.9°C 79% 3.5 mph S5.6 kmh S 6.9 mph11.1 kmh 30.36 in1028.1 mb - 0.00 in0.0 mm 0.00 in0.0 mm
05:50 PM 51.0°F10.6°C 44.7°F7.1°C 79% 5.8 mph S9.3 kmh S 9.2 mph14.8 kmh 30.36 in1028.1 mb - 0.00 in0.0 mm 0.00 in0.0 mm
05:40 PM 51.2°F10.7°C 44.9°F7.2°C 79% 3.5 mph S5.6 kmh S 5.8 mph9.3 kmh 30.36 in1028.1 mb - 0.00 in0.0 mm 0.00 in0.0 mm
05:30 PM 51.5°F10.8°C 44.9°F7.2°C 78% 4.6 mph S7.4 kmh S 5.8 mph9.3 kmh 30.36 in1028.1 mb - 0.00 in0.0 mm 0.00 in0.0 mm
05:21 PM 51.8°F11.0°C 45.2°F7.3°C 78% 3.5 mph S5.6 kmh S 6.9 mph11.1 kmh 30.36 in1028.1 mb - 0.00 in0.0 mm 0.00 in0.0 mm
05:10 PM 52.0°F11.1°C 45.0°F7.2°C 77% 3.5 mph SSW5.6 kmh SSW 8.1 mph13.0 kmh 30.36 in1028.1 mb - 0.00 in0.0 mm 0.00 in0.0 mm
05:00 PM 52.3°F11.3°C 45.3°F7.4°C 77% 3.5 mph SSW5.6 kmh SSW 4.6 mph7.4 kmh 30.36 in1028.1 mb - 0.00 in0.0 mm 0.00 in0.0 mm
04:50 PM 52.6°F11.4°C 45.6°F7.6°C 77% 3.5 mph S5.6 kmh S 5.8 mph9.3 kmh 30.36 in1028.1 mb - 0.00 in0.0 mm 0.00 in0.0 mm
04:40 PM 52.9°F11.6°C 45.9°F7.7°C 77% 4.6 mph SSW7.4 kmh SSW 5.8 mph9.3 kmh 30.36 in1028.1 mb - 0.00 in0.0 mm 0.00 in0.0 mm
04:30 PM 53.1°F11.7°C 45.7°F7.6°C 76% 3.5 mph SW5.6 kmh SW 8.1 mph13.0 kmh 30.35 in1027.8 mb - 0.00 in0.0 mm 0.00 in0.0 mm
04:20 PM 53.3°F11.8°C 46.0°F7.8°C 76% 5.8 mph S9.3 kmh S 8.1 mph13.0 kmh 30.35 in1027.8 mb - 0.00 in0.0 mm 0.00 in0.0 mm
04:10 PM 53.6°F12.0°C 45.9°F7.7°C 75% 3.5 mph S5.6 kmh S 4.6 mph7.4 kmh 30.35 in1027.8 mb - 0.00 in0.0 mm 0.00 in0.0 mm
04:00 PM 53.7°F12.1°C 46.0°F7.8°C 75% 6.9 mph S11.1 kmh S 9.2 mph14.8 kmh 30.36 in1028.1 mb - 0.00 in0.0 mm 0.00 in0.0 mm
03:50 PM 53.8°F12.1°C 46.1°F7.8°C 75% 5.8 mph SSW9.3 kmh SSW 9.2 mph14.8 kmh 30.36 in1028.1 mb - 0.00 in0.0 mm 0.00 in0.0 mm
03:40 PM 53.8°F12.1°C 46.1°F7.8°C 75% 3.5 mph SW5.6 kmh SW 6.9 mph11.1 kmh 30.36 in1028.1 mb - 0.00 in0.0 mm 0.00 in0.0 mm
03:30 PM 54.0°F12.2°C 46.3°F7.9°C 75% 5.8 mph S9.3 kmh S 10.4 mph16.7 kmh 30.35 in1027.8 mb - 0.00 in0.0 mm 0.00 in0.0 mm
03:20 PM 54.3°F12.4°C 46.5°F8.1°C 75% 4.6 mph S7.4 kmh S 8.1 mph13.0 kmh 30.35 in1027.8 mb - 0.00 in0.0 mm 0.00 in0.0 mm
03:10 PM 54.2°F12.3°C 46.8°F8.2°C 76% 5.8 mph S9.3 kmh S 8.1 mph13.0 kmh 30.35 in1027.8 mb - 0.00 in0.0 mm 0.00 in0.0 mm
03:00 PM 54.0°F12.2°C 46.6°F8.1°C 76% 5.8 mph S9.3 kmh S 6.9 mph11.1 kmh 30.36 in1028.1 mb - 0.00 in0.0 mm 0.00 in0.0 mm
02:50 PM 54.1°F12.3°C 46.7°F8.2°C 76% 4.6 mph SSW7.4 kmh SSW 6.9 mph11.1 kmh 30.36 in1028.1 mb - 0.00 in0.0 mm 0.00 in0.0 mm
02:40 PM 54.0°F12.2°C 47.0°F8.3°C 77% 6.9 mph S11.1 kmh S 9.2 mph14.8 kmh 30.36 in1028.1 mb - 0.00 in0.0 mm 0.00 in0.0 mm
02:30 PM 53.6°F12.0°C 46.9°F8.3°C 78% 5.8 mph S9.3 kmh S 9.2 mph14.8 kmh 30.36 in1028.1 mb - 0.00 in0.0 mm 0.00 in0.0 mm
02:20 PM 53.3°F11.8°C 46.9°F8.3°C 79% 4.6 mph S7.4 kmh S 9.2 mph14.8 kmh 30.36 in1028.1 mb - 0.00 in0.0 mm 0.00 in0.0 mm
02:10 PM 52.9°F11.6°C 46.5°F8.1°C 79% 6.9 mph S11.1 kmh S 9.2 mph14.8 kmh 30.36 in1028.1 mb - 0.00 in0.0 mm 0.00 in0.0 mm
02:00 PM 52.5°F11.4°C 46.5°F8.1°C 80% 3.5 mph S5.6 kmh S 9.2 mph14.8 kmh 30.37 in1028.4 mb - 0.00 in0.0 mm 0.00 in0.0 mm
01:50 PM 51.9°F11.1°C 46.3°F7.9°C 81% 5.8 mph S9.3 kmh S 9.2 mph14.8 kmh 30.37 in1028.4 mb - 0.00 in0.0 mm 0.00 in0.0 mm
01:40 PM 51.8°F11.0°C 46.1°F7.8°C 81% 4.6 mph S7.4 kmh S 9.2 mph14.8 kmh 30.37 in1028.4 mb - 0.00 in0.0 mm 0.00 in0.0 mm
01:30 PM 51.7°F10.9°C 46.4°F8.0°C 82% 5.8 mph S9.3 kmh S 8.1 mph13.0 kmh 30.37 in1028.4 mb - 0.00 in0.0 mm 0.00 in0.0 mm
01:20 PM 51.7°F10.9°C 46.4°F8.0°C 82% 5.8 mph SSW9.3 kmh SSW 9.2 mph14.8 kmh 30.37 in1028.4 mb - 0.00 in0.0 mm 0.00 in0.0 mm
01:10 PM 51.6°F10.9°C 46.3°F7.9°C 82% 5.8 mph S9.3 kmh S 11.5 mph18.5 kmh 30.38 in1028.8 mb - 0.00 in0.0 mm 0.00 in0.0 mm
01:00 PM 51.5°F10.8°C 46.2°F7.9°C 82% 4.6 mph SSW7.4 kmh SSW 8.1 mph13.0 kmh 30.38 in1028.8 mb - 0.00 in0.0 mm 0.00 in0.0 mm
12:50 PM 51.5°F10.8°C 46.2°F7.9°C 82% 4.6 mph SSW7.4 kmh SSW 9.2 mph14.8 kmh 30.38 in1028.8 mb - 0.00 in0.0 mm 0.00 in0.0 mm
12:40 PM 51.4°F10.8°C 46.1°F7.8°C 82% 4.6 mph S7.4 kmh S 10.4 mph16.7 kmh 30.39 in1029.1 mb - 0.00 in0.0 mm 0.00 in0.0 mm
12:30 PM 51.2°F10.7°C 45.9°F7.7°C 82% 2.3 mph SSW3.7 kmh SSW 8.1 mph13.0 kmh 30.38 in1028.8 mb - 0.00 in0.0 mm 0.00 in0.0 mm
12:20 PM 51.0°F10.6°C 45.7°F7.6°C 82% 2.3 mph S3.7 kmh S 5.8 mph9.3 kmh 30.38 in1028.8 mb - 0.00 in0.0 mm 0.00 in0.0 mm
12:10 PM 50.7°F10.4°C 45.4°F7.4°C 82% 4.6 mph SSW7.4 kmh SSW 6.9 mph11.1 kmh 30.38 in1028.8 mb - 0.00 in0.0 mm 0.00 in0.0 mm
12:00 PM 50.4°F10.2°C 45.4°F7.4°C 83% 4.6 mph S7.4 kmh S 6.9 mph11.1 kmh 30.38 in1028.8 mb - 0.00 in0.0 mm 0.00 in0.0 mm
11:50 AM 49.9°F9.9°C 45.0°F7.2°C 83% 3.5 mph S5.6 kmh S 5.8 mph9.3 kmh 30.39 in1029.1 mb - 0.00 in0.0 mm 0.00 in0.0 mm
11:40 AM 49.6°F9.8°C 44.7°F7.1°C 83% 3.5 mph SSW5.6 kmh SSW 6.9 mph11.1 kmh 30.38 in1028.8 mb - 0.00 in0.0 mm 0.00 in0.0 mm
11:30 AM 49.4°F9.7°C 44.5°F6.9°C 83% 4.6 mph S7.4 kmh S 6.9 mph11.1 kmh 30.38 in1028.8 mb - 0.00 in0.0 mm 0.00 in0.0 mm
11:20 AM 49.2°F9.6°C 44.2°F6.8°C 83% 4.6 mph S7.4 kmh S 6.9 mph11.1 kmh 30.38 in1028.8 mb - 0.00 in0.0 mm 0.00 in0.0 mm
11:10 AM 48.9°F9.4°C 44.3°F6.8°C 84% 4.6 mph S7.4 kmh S 10.4 mph16.7 kmh 30.39 in1029.1 mb - 0.00 in0.0 mm 0.00 in0.0 mm
11:00 AM 48.6°F9.2°C 44.3°F6.8°C 85% 4.6 mph S7.4 kmh S 8.1 mph13.0 kmh 30.39 in1029.1 mb - 0.00 in0.0 mm 0.00 in0.0 mm
10:50 AM 48.2°F9.0°C 44.6°F7.0°C 87% 4.6 mph S7.4 kmh S 5.8 mph9.3 kmh 30.39 in1029.1 mb - 0.00 in0.0 mm 0.00 in0.0 mm
10:40 AM 47.8°F8.8°C 44.1°F6.7°C 87% 4.6 mph S7.4 kmh S 8.1 mph13.0 kmh 30.39 in1029.1 mb - 0.00 in0.0 mm 0.00 in0.0 mm
10:30 AM 47.6°F8.7°C 44.2°F6.8°C 88% 3.5 mph S5.6 kmh S 4.6 mph7.4 kmh 30.39 in1029.1 mb - 0.00 in0.0 mm 0.00 in0.0 mm
10:20 AM 47.4°F8.6°C 44.0°F6.7°C 88% 3.5 mph SSW5.6 kmh SSW 5.8 mph9.3 kmh 30.39 in1029.1 mb - 0.00 in0.0 mm 0.00 in0.0 mm
10:10 AM 47.2°F8.4°C 44.1°F6.7°C 89% 5.8 mph S9.3 kmh S 10.4 mph16.7 kmh 30.40 in1029.5 mb - 0.00 in0.0 mm 0.00 in0.0 mm
10:00 AM 47.0°F8.3°C 43.9°F6.6°C 89% 5.8 mph S9.3 kmh S 6.9 mph11.1 kmh 30.40 in1029.5 mb - 0.00 in0.0 mm 0.00 in0.0 mm
09:50 AM 46.9°F8.3°C 44.1°F6.7°C 90% 5.8 mph S9.3 kmh S 8.1 mph13.0 kmh 30.40 in1029.5 mb - 0.00 in0.0 mm 0.00 in0.0 mm
09:40 AM 46.8°F8.2°C 44.0°F6.7°C 90% 4.6 mph S7.4 kmh S 6.9 mph11.1 kmh 30.40 in1029.5 mb - 0.00 in0.0 mm 0.00 in0.0 mm
09:30 AM 46.8°F8.2°C 44.0°F6.7°C 90% 5.8 mph SSW9.3 kmh SSW 8.1 mph13.0 kmh 30.40 in1029.5 mb - 0.00 in0.0 mm 0.00 in0.0 mm
09:20 AM 46.8°F8.2°C 44.0°F6.7°C 90% 4.6 mph S7.4 kmh S 6.9 mph11.1 kmh 30.40 in1029.5 mb - 0.00 in0.0 mm 0.00 in0.0 mm
09:10 AM 46.9°F8.3°C 43.8°F6.6°C 89% 4.6 mph SSW7.4 kmh SSW 8.1 mph13.0 kmh 30.40 in1029.5 mb - 0.00 in0.0 mm 0.00 in0.0 mm
09:00 AM 47.1°F8.4°C 44.0°F6.7°C 89% 6.9 mph S11.1 kmh S 11.5 mph18.5 kmh 30.39 in1029.1 mb - 0.00 in0.0 mm 0.00 in0.0 mm
08:50 AM 47.3°F8.5°C 43.9°F6.6°C 88% 4.6 mph SSW7.4 kmh SSW 6.9 mph11.1 kmh 30.40 in1029.5 mb - 0.00 in0.0 mm 0.00 in0.0 mm
08:40 AM 47.6°F8.7°C 43.9°F6.6°C 87% 5.8 mph SSW9.3 kmh SSW 6.9 mph11.1 kmh 30.39 in1029.1 mb - 0.00 in0.0 mm 0.00 in0.0 mm
08:30 AM 47.7°F8.7°C 43.7°F6.5°C 86% 4.6 mph S7.4 kmh S 5.8 mph9.3 kmh 30.39 in1029.1 mb - 0.00 in0.0 mm 0.00 in0.0 mm
08:21 AM 47.7°F8.7°C 43.4°F6.3°C 85% 4.6 mph S7.4 kmh S 8.1 mph13.0 kmh 30.39 in1029.1 mb - 0.00 in0.0 mm 0.00 in0.0 mm
08:10 AM 47.8°F8.8°C 43.2°F6.2°C 84% 4.6 mph SSW7.4 kmh SSW 5.8 mph9.3 kmh 30.39 in1029.1 mb - 0.00 in0.0 mm 0.00 in0.0 mm
08:00 AM 47.8°F8.8°C 43.2°F6.2°C 84% 4.6 mph S7.4 kmh S 9.2 mph14.8 kmh 30.39 in1029.1 mb - 0.00 in0.0 mm 0.00 in0.0 mm
07:50 AM 47.8°F8.8°C 42.9°F6.1°C 83% 4.6 mph S7.4 kmh S 8.1 mph13.0 kmh 30.39 in1029.1 mb - 0.00 in0.0 mm 0.00 in0.0 mm
07:40 AM 47.8°F8.8°C 42.6°F5.9°C 82% 4.6 mph SSW7.4 kmh SSW 8.1 mph13.0 kmh 30.39 in1029.1 mb - 0.00 in0.0 mm 0.00 in0.0 mm
07:30 AM 47.9°F8.8°C 42.7°F5.9°C 82% 4.6 mph S7.4 kmh S 8.1 mph13.0 kmh 30.39 in1029.1 mb - 0.00 in0.0 mm 0.00 in0.0 mm
07:20 AM 47.9°F8.8°C 42.7°F5.9°C 82% 4.6 mph S7.4 kmh S 5.8 mph9.3 kmh 30.39 in1029.1 mb - 0.00 in0.0 mm 0.00 in0.0 mm
07:10 AM 47.9°F8.8°C 42.4°F5.8°C 81% 5.8 mph SSW9.3 kmh SSW 6.9 mph11.1 kmh 30.39 in1029.1 mb - 0.00 in0.0 mm 0.00 in0.0 mm
07:00 AM 48.0°F8.9°C 42.4°F5.8°C 81% 5.8 mph SSW9.3 kmh SSW 8.1 mph13.0 kmh 30.39 in1029.1 mb - 0.00 in0.0 mm 0.00 in0.0 mm
06:50 AM 48.0°F8.9°C 42.4°F5.8°C 81% 4.6 mph S7.4 kmh S 6.9 mph11.1 kmh 30.39 in1029.1 mb - 0.00 in0.0 mm 0.00 in0.0 mm
06:40 AM 48.0°F8.9°C 42.4°F5.8°C 81% 3.5 mph SSW5.6 kmh SSW 6.9 mph11.1 kmh 30.39 in1029.1 mb - 0.00 in0.0 mm 0.00 in0.0 mm
06:30 AM 47.9°F8.8°C 42.1°F5.6°C 80% 4.6 mph SSW7.4 kmh SSW 8.1 mph13.0 kmh 30.39 in1029.1 mb - 0.00 in0.0 mm 0.00 in0.0 mm
06:20 AM 48.0°F8.9°C 42.1°F5.6°C 80% 3.5 mph S5.6 kmh S 5.8 mph9.3 kmh 30.39 in1029.1 mb - 0.00 in0.0 mm 0.00 in0.0 mm
06:10 AM 48.0°F8.9°C 42.4°F5.8°C 81% 4.6 mph SSW7.4 kmh SSW 9.2 mph14.8 kmh 30.39 in1029.1 mb - 0.00 in0.0 mm 0.00 in0.0 mm
06:00 AM 48.0°F8.9°C 42.8°F6.0°C 82% 3.5 mph SSW5.6 kmh SSW 9.2 mph14.8 kmh 30.39 in1029.1 mb - 0.00 in0.0 mm 0.00 in0.0 mm
05:50 AM 47.9°F8.8°C 43.0°F6.1°C 83% 5.8 mph SSW9.3 kmh SSW 11.5 mph18.5 kmh 30.39 in1029.1 mb - 0.00 in0.0 mm 0.00 in0.0 mm
05:40 AM 48.0°F8.9°C 43.4°F6.3°C 84% 3.5 mph SSW5.6 kmh SSW 5.8 mph9.3 kmh 30.39 in1029.1 mb - 0.00 in0.0 mm 0.00 in0.0 mm
05:30 AM 48.1°F8.9°C 43.8°F6.6°C 85% 3.5 mph SSW5.6 kmh SSW 6.9 mph11.1 kmh 30.39 in1029.1 mb - 0.00 in0.0 mm 0.00 in0.0 mm
05:20 AM 48.2°F9.0°C 43.3°F6.3°C 83% 3.5 mph SSW5.6 kmh SSW 5.8 mph9.3 kmh 30.39 in1029.1 mb - 0.00 in0.0 mm 0.00 in0.0 mm
05:10 AM 48.2°F9.0°C 43.0°F6.1°C 82% 3.5 mph SSW5.6 kmh SSW 5.8 mph9.3 kmh 30.39 in1029.1 mb - 0.00 in0.0 mm 0.00 in0.0 mm
05:00 AM 48.3°F9.1°C 43.1°F6.2°C 82% 4.6 mph S7.4 kmh S 5.8 mph9.3 kmh 30.39 in1029.1 mb - 0.00 in0.0 mm 0.00 in0.0 mm
04:50 AM 48.4°F9.1°C 42.8°F6.0°C 81% 4.6 mph SW7.4 kmh SW 9.2 mph14.8 kmh 30.40 in1029.5 mb - 0.00 in0.0 mm 0.00 in0.0 mm
04:40 AM 48.4°F9.1°C 42.9°F6.1°C 81% 5.8 mph S9.3 kmh S 9.2 mph14.8 kmh 30.39 in1029.1 mb - 0.00 in0.0 mm 0.00 in0.0 mm
04:30 AM 48.5°F9.2°C 42.9°F6.1°C 81% 4.6 mph S7.4 kmh S 8.1 mph13.0 kmh 30.39 in1029.1 mb - 0.00 in0.0 mm 0.00 in0.0 mm
04:20 AM 48.5°F9.2°C 42.9°F6.1°C 81% 4.6 mph SSW7.4 kmh SSW 8.1 mph13.0 kmh 30.39 in1029.1 mb - 0.00 in0.0 mm 0.00 in0.0 mm
04:10 AM 48.5°F9.2°C 42.9°F6.1°C 81% 6.9 mph SSW11.1 kmh SSW 10.4 mph16.7 kmh 30.39 in1029.1 mb - 0.00 in0.0 mm 0.00 in0.0 mm
04:00 AM 48.5°F9.2°C 42.9°F6.1°C 81% 5.8 mph SSW9.3 kmh SSW 11.5 mph18.5 kmh 30.40 in1029.5 mb - 0.00 in0.0 mm 0.00 in0.0 mm
03:50 AM 48.6°F9.2°C 42.7°F5.9°C 80% 5.8 mph SSW9.3 kmh SSW 9.2 mph14.8 kmh 30.39 in1029.1 mb - 0.00 in0.0 mm 0.00 in0.0 mm
03:40 AM 48.7°F9.3°C 42.8°F6.0°C 80% 5.8 mph SW9.3 kmh SW 10.4 mph16.7 kmh 30.39 in1029.1 mb - 0.00 in0.0 mm 0.00 in0.0 mm
03:30 AM 48.7°F9.3°C 42.5°F5.8°C 79% 4.6 mph SW7.4 kmh SW 8.1 mph13.0 kmh 30.40 in1029.5 mb - 0.00 in0.0 mm 0.00 in0.0 mm
03:20 AM 48.7°F9.3°C 42.5°F5.8°C 79% 5.8 mph S9.3 kmh S 8.1 mph13.0 kmh 30.40 in1029.5 mb - 0.00 in0.0 mm 0.00 in0.0 mm
03:10 AM 48.8°F9.3°C 42.9°F6.1°C 80% 6.9 mph SW11.1 kmh SW 11.5 mph18.5 kmh 30.39 in1029.1 mb - 0.00 in0.0 mm 0.00 in0.0 mm
03:00 AM 48.8°F9.3°C 42.9°F6.1°C 80% 4.6 mph SW7.4 kmh SW 9.2 mph14.8 kmh 30.39 in1029.1 mb - 0.00 in0.0 mm 0.00 in0.0 mm
02:50 AM 48.8°F9.3°C 42.9°F6.1°C 80% 6.9 mph SSW11.1 kmh SSW 10.4 mph16.7 kmh 30.39 in1029.1 mb - 0.00 in0.0 mm 0.00 in0.0 mm
02:40 AM 48.9°F9.4°C 43.0°F6.1°C 80% 4.6 mph SSW7.4 kmh SSW 10.4 mph16.7 kmh 30.39 in1029.1 mb - 0.00 in0.0 mm 0.00 in0.0 mm
02:30 AM 48.9°F9.4°C 42.7°F5.9°C 79% 4.6 mph SSW7.4 kmh SSW 9.2 mph14.8 kmh 30.39 in1029.1 mb - 0.00 in0.0 mm 0.00 in0.0 mm
02:20 AM 49.0°F9.4°C 42.8°F6.0°C 79% 3.5 mph SSW5.6 kmh SSW 9.2 mph14.8 kmh 30.39 in1029.1 mb - 0.00 in0.0 mm 0.00 in0.0 mm
02:10 AM 49.2°F9.6°C 43.0°F6.1°C 79% 5.8 mph SSW9.3 kmh SSW 9.2 mph14.8 kmh 30.39 in1029.1 mb - 0.00 in0.0 mm 0.00 in0.0 mm
02:00 AM 49.2°F9.6°C 43.0°F6.1°C 79% 4.6 mph SSW7.4 kmh SSW 11.5 mph18.5 kmh 30.39 in1029.1 mb - 0.00 in0.0 mm 0.00 in0.0 mm
01:50 AM 49.2°F9.6°C 43.3°F6.3°C 80% 3.5 mph SSW5.6 kmh SSW 5.8 mph9.3 kmh 30.39 in1029.1 mb - 0.00 in0.0 mm 0.00 in0.0 mm
01:40 AM 49.1°F9.5°C 42.9°F6.1°C 79% 4.6 mph SSW7.4 kmh SSW 5.8 mph9.3 kmh 30.38 in1028.8 mb - 0.00 in0.0 mm 0.00 in0.0 mm
01:30 AM 49.0°F9.4°C 42.8°F6.0°C 79% 3.5 mph SW5.6 kmh SW 6.9 mph11.1 kmh 30.39 in1029.1 mb - 0.00 in0.0 mm 0.00 in0.0 mm
01:20 AM 48.9°F9.4°C 42.7°F5.9°C 79% 5.8 mph SSW9.3 kmh SSW 8.1 mph13.0 kmh 30.38 in1028.8 mb - 0.00 in0.0 mm 0.00 in0.0 mm
01:10 AM 49.0°F9.4°C 42.4°F5.8°C 78% 4.6 mph SSW7.4 kmh SSW 8.1 mph13.0 kmh 30.38 in1028.8 mb - 0.00 in0.0 mm 0.00 in0.0 mm
01:00 AM 49.2°F9.6°C 42.6°F5.9°C 78% 3.5 mph S5.6 kmh S 8.1 mph13.0 kmh 30.38 in1028.8 mb - 0.00 in0.0 mm 0.00 in0.0 mm
12:50 AM 49.2°F9.6°C 42.6°F5.9°C 78% 4.6 mph SSW7.4 kmh SSW 5.8 mph9.3 kmh 30.38 in1028.8 mb - 0.00 in0.0 mm 0.00 in0.0 mm
12:40 AM 49.3°F9.6°C 42.7°F5.9°C 78% 3.5 mph SSW5.6 kmh SSW 6.9 mph11.1 kmh 30.38 in1028.8 mb - 0.00 in0.0 mm 0.00 in0.0 mm
12:30 AM 49.3°F9.6°C 42.4°F5.8°C 77% 4.6 mph SW7.4 kmh SW 8.1 mph13.0 kmh 30.38 in1028.8 mb - 0.00 in0.0 mm 0.00 in0.0 mm
12:20 AM 49.2°F9.6°C 42.3°F5.7°C 77% 3.5 mph SSW5.6 kmh SSW 5.8 mph9.3 kmh 30.39 in1029.1 mb - 0.00 in0.0 mm 0.00 in0.0 mm
12:10 AM 49.1°F9.5°C 42.2°F5.7°C 77% 6.9 mph SSW11.1 kmh SSW 9.2 mph14.8 kmh 30.39 in1029.1 mb - 0.00 in0.0 mm 0.00 in0.0 mm
12:00 AM 49.1°F9.5°C 42.2°F5.7°C 77% 5.8 mph SSW9.3 kmh SSW 11.5 mph18.5 kmh 30.39 in1029.1 mb - 0.00 in0.0 mm 0.00 in0.0 mm